Startpagina
METAR-TAF:

METAR-TAF

Vliegvelden :

Luchthaven Bujumbura

Bujumbura, Burundi

breedte: 03-19S, lengte: 029-19E, hoogte: 782 m

Actueel weer

Dit bericht is 17 minuten geleden gemaakt, om 05:00 UTC
Weinig wind
Temperatuur
Druk
Zicht: 1015 m

METAR: HBBA 200500Z 00000KT 9999 FWE020TCU SCT10022/19 1015 NOSIG

Tijdstip: 07:17 (05:17 UTC)

Verwachting

Dit bericht is 6 uur en het 17 minuten geleden gemaakt, om 23:00 UTC
Verwachting geldig van 21 om 00 UTC tot 22 om 06 UTC
Wind kt uit het noorden met uitschieters tot 26 kt
Zicht 10 km of meer
geen wolken onder 1500 m en geen cumulonimbus

TAF: HBBA 202300Z 2100/2206 03004KT 9999 FEW030 SCT100 BECMG2108/2110 18008G18KT 9999 FEW035 BKN100 BECMG2113/2115 18015G26KT 9999 FEW035 BECMG2118/2120 00000KT CAVOK

Waarnemingen en weersverwachtingen van meer dan 4000 vliegvelden (METAR en TAF).

De beschikbare stations zijn de gele en rode punten op de kaart.

Ga met uw muis naar het station om de naam te zien.

Klik dan om waarnemingen en weersverwachtingen te zien.

kaart wijzigen: klik op de groene knoppen met een zwart kruis om in te zoomen, op de groene knop met een streepje om uit te zoomen of op de groene pijlen voor aangrenzende kaarten.


METAR-TAF: